地図

経路データ

SID SEASON NUMBER BASIN SUBBASIN NAME ISO_TIME NATURE LAT LON WMO_WIND WMO_PRES WMO_AGENCY TRACK_TYPE DIST2LAND LANDFALL IFLAG USA_AGENCY USA_ATCF_ID USA_LAT USA_LON USA_RECORD USA_STATUS USA_WIND USA_PRES USA_SSHS USA_R34_NE USA_R34_SE USA_R34_SW USA_R34_NW USA_R50_NE USA_R50_SE USA_R50_SW USA_R50_NW USA_R64_NE USA_R64_SE USA_R64_SW USA_R64_NW USA_POCI USA_ROCI USA_RMW USA_EYE TOKYO_LAT TOKYO_LON TOKYO_GRADE TOKYO_WIND TOKYO_PRES TOKYO_R50_DIR TOKYO_R50_LONG TOKYO_R50_SHORT TOKYO_R30_DIR TOKYO_R30_LONG TOKYO_R30_SHORT TOKYO_LAND CMA_LAT CMA_LON CMA_CAT CMA_WIND CMA_PRES HKO_LAT HKO_LON HKO_CAT HKO_WIND HKO_PRES NEWDELHI_LAT NEWDELHI_LON NEWDELHI_GRADE NEWDELHI_WIND NEWDELHI_PRES NEWDELHI_CI NEWDELHI_DP NEWDELHI_POCI REUNION_LAT REUNION_LON REUNION_TYPE REUNION_WIND REUNION_PRES REUNION_TNUM REUNION_CI REUNION_RMW REUNION_R34_NE REUNION_R34_SE REUNION_R34_SW REUNION_R34_NW REUNION_R50_NE REUNION_R50_SE REUNION_R50_SW REUNION_R50_NW REUNION_R64_NE REUNION_R64_SE REUNION_R64_SW REUNION_R64_NW BOM_LAT BOM_LON BOM_TYPE BOM_WIND BOM_PRES BOM_TNUM BOM_CI BOM_RMW BOM_R34_NE BOM_R34_SE BOM_R34_SW BOM_R34_NW BOM_R50_NE BOM_R50_SE BOM_R50_SW BOM_R50_NW BOM_R64_NE BOM_R64_SE BOM_R64_SW BOM_R64_NW BOM_ROCI BOM_POCI BOM_EYE BOM_POS_METHOD BOM_PRES_METHOD NADI_LAT NADI_LON NADI_CAT NADI_WIND NADI_PRES WELLINGTON_LAT WELLINGTON_LON WELLINGTON_WIND WELLINGTON_PRES DS824_LAT DS824_LON DS824_STAGE DS824_WIND DS824_PRES TD9636_LAT TD9636_LON TD9636_STAGE TD9636_WIND TD9636_PRES TD9635_LAT TD9635_LON TD9635_WIND TD9635_PRES TD9635_ROCI NEUMANN_LAT NEUMANN_LON NEUMANN_CLASS NEUMANN_WIND NEUMANN_PRES MLC_LAT MLC_LON MLC_CLASS MLC_WIND MLC_PRES USA_GUST BOM_GUST BOM_GUST_PER REUNION_GUST REUNION_GUST_PER USA_SEAHGT USA_SEARAD_NE USA_SEARAD_SE USA_SEARAD_SW USA_SEARAD_NW STORM_SPEED STORM_DIR
1895259N18090 1895 33 NI BB NOT_NAMED 1895-09-16 00:00:00 TS 17.9000 89.9000 main 398 390 _________O____ -1 17.9000 89.9000 TC 30 5 335
1895259N18090 1895 33 NI BB NOT_NAMED 1895-09-16 03:00:00 TS 18.1034 89.7951 main 391 363 _________PO___ -1 18.2051 89.7427 TC 30 17.9000 89.9000 1 5 335
1895259N18090 1895 33 NI BB NOT_NAMED 1895-09-16 06:00:00 TS 18.3693 89.6730 main 363 339 _________OP___ -1 18.5000 89.6000 TC 30 18.1733 89.7825 1 6 337
1895259N18090 1895 33 NI BB NOT_NAMED 1895-09-16 09:00:00 TS 18.6445 89.5493 main 338 303 _________PP___ -1 18.7849 89.4723 TC 30 18.4573 89.6519 1 6 335
1895259N18090 1895 33 NI BB NOT_NAMED 1895-09-16 12:00:00 TS 18.9313 89.3977 main 303 257 _________OP___ -1 19.1000 89.3000 TC 30 18.7627 89.4954 1 8 330
1895259N18090 1895 33 NI BB NOT_NAMED 1895-09-16 15:00:00 TS 19.3038 89.1502 main 257 212 _________PO___ -1 19.5076 89.0003 TC 30 19.1000 89.3000 1 9 327
1895259N18090 1895 33 NI BB NOT_NAMED 1895-09-16 18:00:00 TS 19.6854 88.8804 main 212 180 _________OP___ -1 19.9000 88.7000 TC 30 19.4709 89.0608 1 9 327
1895259N18090 1895 33 NI BB NOT_NAMED 1895-09-16 21:00:00 TS 20.0251 88.6555 main 180 145 _________PP___ -1 20.2099 88.5049 TC 30 19.8404 88.8061 1 7 328
1895259N18090 1895 33 NI BB NOT_NAMED 1895-09-17 00:00:00 TS 20.2823 88.4866 main 145 134 _________OP___ -1 20.4000 88.4000 TC 30 20.1646 88.5732 1 5 328
1895259N18090 1895 33 NI BB NOT_NAMED 1895-09-17 03:00:00 TS 20.4187 88.3887 main 134 134 _________PO___ -1 20.4375 88.3774 TC 30 20.4000 88.4000 1 2 326
1895259N18090 1895 33 NI BB NOT_NAMED 1895-09-17 06:00:00 TS 20.4466 88.3674 main 134 123 _________OP___ -1 20.4000 88.4000 TC 30 20.4932 88.3348 1 0 319
1895259N18090 1895 33 NI BB NOT_NAMED 1895-09-17 09:00:00 TS 20.4486 88.3660 main 134 134 _________PP___ -1 20.4000 88.4000 TC 30 20.4973 88.3319 1 0 0
1895259N18090 1895 33 NI BB NOT_NAMED 1895-09-17 12:00:00 TS 20.4264 88.3816 main 134 134 _________OP___ -1 20.4000 88.4000 TC 30 20.4527 88.3631 1 1 135
1895259N18090 1895 33 NI BB NOT_NAMED 1895-09-17 15:00:00 TS 20.4000 88.4000 main 134 134 _________PO___ -1 20.4000 88.4000 TC 30 20.4000 88.4000 1 1 146
1895259N18090 1895 33 NI BB NOT_NAMED 1895-09-17 18:00:00 TS 20.3695 88.4221 main 134 134 _________OP___ -1 20.4000 88.4000 TC 30 20.3389 88.4442 1 1 145
1895259N18090 1895 33 NI BB NOT_NAMED 1895-09-17 21:00:00 TS 20.3211 88.4557 main 145 145 _________PP___ -1 20.3550 88.4299 TC 30 20.2872 88.4816 1 0 0
1895259N18090 1895 33 NI BB NOT_NAMED 1895-09-18 00:00:00 TS 20.3460 88.4391 main 145 123 _________OP___ -1 20.4000 88.4000 TC 30 20.2919 88.4782 1 2 329
1895259N18090 1895 33 NI BB NOT_NAMED 1895-09-18 03:00:00 TS 20.5162 88.3262 main 123 89 _________PO___ -1 20.6324 88.2523 TC 30 20.4000 88.4000 1 6 328
1895259N18090 1895 33 NI BB NOT_NAMED 1895-09-18 06:00:00 TS 20.8398 88.1044 main 90 54 _________OP___ -1 21.0000 88.0000 TC 30 20.6796 88.2089 1 9 326
1895259N18090 1895 33 NI BB NOT_NAMED 1895-09-18 09:00:00 TS 21.2552 87.8032 main 44 0 _________PP___ -1 21.4501 87.6653 TC 30 21.0603 87.9411 1 10 325
1895259N18090 1895 33 NI BB NOT_NAMED 1895-09-18 12:00:00 TS 21.6929 87.4638 main 0 0 _________OP___ -1 21.9000 87.3000 TC 30 21.4858 87.6276 1 10 323
1895259N18090 1895 33 NI BB NOT_NAMED 1895-09-18 15:00:00 TS 22.0612 87.1461 main 0 0 _________PO___ -1 22.2224 86.9922 TC 30 21.9000 87.3000 1 9 320
1895259N18090 1895 33 NI BB NOT_NAMED 1895-09-18 18:00:00 TS 22.3545 86.8632 main 0 0 _________OP___ -1 22.5000 86.7000 TC 30 22.2090 87.0264 1 8 318
1895259N18090 1895 33 NI BB NOT_NAMED 1895-09-18 21:00:00 TS 22.6458 86.5828 main 0 0 _________PP___ -1 22.7923 86.4221 TC 30 22.4994 86.7434 1 8 317
1895259N18090 1895 33 NI BB NOT_NAMED 1895-09-19 00:00:00 TS 22.9451 86.2694 main 0 0 _________OP___ -1 23.1000 86.1000 TC 30 22.7901 86.4387 1 9 314
1895259N18090 1895 33 NI BB NOT_NAMED 1895-09-19 03:00:00 TS 23.2676 85.8825 main 0 0 _________PO___ -1 23.4351 85.6650 TC 30 23.1000 86.1000 1 10 312
1895259N18090 1895 33 NI BB NOT_NAMED 1895-09-19 06:00:00 TS 23.6309 85.4496 main 0 0 _________OP___ -1 23.8000 85.2000 TC 30 23.4619 85.6992 1 11 314
1895259N18090 1895 33 NI BB NOT_NAMED 1895-09-19 09:00:00 TS 24.0252 85.0253 main 0 0 _________PP___ -1 24.2074 84.7850 TC 30 23.8429 85.2656 1 11 316
1895259N18090 1895 33 NI BB NOT_NAMED 1895-09-19 12:00:00 TS 24.4137 84.6121 main 0 0 _________OP___ -1 24.6000 84.4000 TC 30 24.2275 84.8241 1 10 315
1895259N18090 1895 33 NI BB NOT_NAMED 1895-09-19 15:00:00 TS 24.7537 84.2210 main 0 0 _________PO___ -1 24.9074 84.0421 TC 30 24.6000 84.4000 1 9 314
1895259N18090 1895 33 NI BB NOT_NAMED 1895-09-19 18:00:00 TS 25.0565 83.8788 main 0 0 _________OP___ -1 25.2000 83.7000 TC 30 24.9489 84.0129 1 9 315
1895259N18090 1895 33 NI BB NOT_NAMED 1895-09-19 21:00:00 TS 25.3806 83.5360 main 0 0 _________PP___ -1 25.5352 83.3531 TC 30 25.2775 83.6579 1 9 317
1895259N18090 1895 33 NI BB NOT_NAMED 1895-09-20 00:00:00 TS 25.6949 83.2160 main 0 0 _________OP___ -1 25.9000 83.0000 TC 30 25.5923 83.3241 1 7 317
1895259N18090 1895 33 NI BB NOT_NAMED 1895-09-20 03:00:00 NR 25.9000 83.0000 main 0 __________O___ -1 TC 25.9000 83.0000 1 6 317

IBTrACS Databaseについて

本データベースは、米国NOAAが公開する1842年以降の世界の熱帯低気圧のベストトラックデータアーカイブInternational Best Track Archive for Climate Stewardship (IBTrACS)を、ウェブで閲覧しやすい形式に変換したものです。

最終更新日:2021-12-01